Time;durP1;ratioP1;P1;durP2;ratioP2;P2;SDS_P1;SDS_P2;PMS_P1;PMS_P2;Temp;Humidity;BMP_temperature;BMP_pressure;BME280_temperature;BME280_humidity;BME280_pressure;Samples;Min_cycle;Max_cycle;Signal;HPM_P1;HPM_P2
2022/11/12 06:05:16;;;;;;;8.23;5.80;;;6.50;99.90;;;;;;10151402;29;20279;-75
2022/11/12 06:10:18;;;;;;;8.35;5.53;;;6.60;99.90;;;;;;10141025;29;20115;-73
2022/11/12 06:15:20;;;;;;;8.10;5.22;;;6.60;99.90;;;;;;10193338;29;20083;-77
2022/11/12 06:20:23;;;;;;;8.65;5.68;;;6.60;99.90;;;;;;10189611;29;20414;-73
2022/11/12 06:25:25;;;;;;;7.43;5.22;;;6.50;99.90;;;;;;10191569;29;20084;-74
2022/11/12 06:30:27;;;;;;;6.80;5.00;;;6.50;99.90;;;;;;10179867;29;20088;-75
2022/11/12 06:35:30;;;;;;;8.50;5.43;;;6.50;99.90;;;;;;10191977;29;20478;-74
2022/11/12 06:40:32;;;;;;;10.57;5.63;;;6.30;99.90;;;;;;10190720;29;20051;-77
2022/11/12 06:45:34;;;;;;;9.70;6.07;;;6.20;99.90;;;;;;10241912;28;20072;-75
2022/11/12 06:50:38;;;;;;;7.95;5.22;;;6.10;99.90;;;;;;10213723;29;20052;-77
2022/11/12 06:55:39;;;;;;;9.25;5.93;;;6.20;99.90;;;;;;10213072;29;20048;-76
2022/11/12 07:00:41;;;;;;;9.52;6.03;;;6.30;99.90;;;;;;10222989;29;20047;-74
2022/11/12 07:05:45;;;;;;;9.43;5.80;;;6.20;99.90;;;;;;10215563;29;20088;-78
2022/11/12 07:10:46;;;;;;;11.90;6.55;;;6.40;99.90;;;;;;10214580;29;20134;-74
2022/11/12 07:15:48;;;;;;;15.15;8.38;;;6.40;99.90;;;;;;10229157;28;20474;-75
2022/11/12 07:20:52;;;;;;;15.20;7.93;;;6.40;99.90;;;;;;10205898;29;20032;-75
2022/11/12 07:26:02;;;;;;;16.60;9.38;;;6.50;99.90;;;;;;10225340;29;20032;-77
2022/11/12 07:31:06;;;;;;;20.15;10.45;;;6.50;99.90;;;;;;10221722;29;20067;-74
2022/11/12 07:36:12;;;;;;;18.55;9.52;;;6.50;99.90;;;;;;10253080;28;20052;-75
2022/11/12 07:41:16;;;;;;;19.65;10.50;;;6.60;99.90;;;;;;10256082;28;20051;-77
2022/11/12 07:46:21;;;;;;;13.65;7.82;;;6.60;99.90;;;;;;10224178;29;20060;-76
2022/11/12 07:51:26;;;;;;;9.27;6.32;;;6.60;99.90;;;;;;10224564;29;20044;-76
2022/11/12 07:56:29;;;;;;;7.43;4.82;;;6.50;99.90;;;;;;10222489;29;20115;-76
2022/11/12 08:01:33;;;;;;;24.92;6.15;;;6.50;99.90;;;;;;10179141;29;20060;-75
2022/11/12 08:06:37;;;;;;;37.83;6.20;;;6.50;99.90;;;;;;10175623;29;20076;-74
2022/11/12 08:11:40;;;;;;;9.43;5.85;;;6.40;99.90;;;;;;10190778;29;20151;-79
2022/11/12 08:16:42;;;;;;;8.80;5.53;;;6.50;99.90;;;;;;10182993;29;20056;-76
2022/11/12 08:21:46;;;;;;;8.05;5.55;;;6.70;99.90;;;;;;10181703;29;20052;-76
2022/11/12 08:26:47;;;;;;;8.13;5.75;;;6.80;99.90;;;;;;10174500;29;20386;-77
2022/11/12 08:31:49;;;;;;;8.45;5.32;;;7.00;99.90;;;;;;10173946;29;20487;-75
2022/11/12 08:36:53;;;;;;;7.75;5.43;;;7.10;99.90;;;;;;10174250;29;20072;-75
2022/11/12 08:41:54;;;;;;;7.45;5.22;;;7.20;99.90;;;;;;10173603;29;20438;-75
2022/11/12 08:46:58;;;;;;;8.43;6.05;;;7.30;99.90;;;;;;10173348;29;20554;-75
2022/11/12 08:52:01;;;;;;;8.07;5.72;;;7.30;99.90;;;;;;10173260;29;20135;-77
2022/11/12 08:57:03;;;;;;;8.35;5.72;;;7.30;99.90;;;;;;10181454;29;20120;-74
2022/11/12 09:02:05;;;;;;;7.38;5.22;;;7.50;99.90;;;;;;10181338;29;20127;-75
2022/11/12 09:07:08;;;;;;;7.38;5.30;;;7.60;99.90;;;;;;10183199;29;20076;-74
2022/11/12 09:12:17;;;;;;;7.05;4.95;;;7.70;99.90;;;;;;10164672;29;20089;-75
2022/11/12 09:17:19;;;;;;;8.10;5.15;;;7.70;99.90;;;;;;10174770;29;20158;-76
2022/11/12 09:22:22;;;;;;;6.65;4.82;;;7.70;99.90;;;;;;10180838;29;20107;-75
2022/11/12 09:27:26;;;;;;;6.95;5.30;;;7.60;99.90;;;;;;10181502;29;20056;-75
2022/11/12 09:32:28;;;;;;;6.68;4.60;;;7.80;99.90;;;;;;10200915;29;20048;-75
2022/11/12 09:37:31;;;;;;;6.93;4.75;;;8.00;99.90;;;;;;10224793;29;20052;-75
2022/11/12 09:42:35;;;;;;;5.90;4.10;;;8.00;99.90;;;;;;10225965;29;20047;-78
2022/11/12 09:47:43;;;;;;;9.18;5.57;;;8.00;99.90;;;;;;10206961;29;20076;-77
2022/11/12 09:52:51;;;;;;;8.70;5.28;;;8.00;99.90;;;;;;10170637;29;20080;-80
2022/11/12 09:57:53;;;;;;;7.10;4.63;;;8.20;99.90;;;;;;10180893;29;20048;-74
2022/11/12 10:03:01;;;;;;;7.35;5.25;;;8.40;99.90;;;;;;10194938;29;20112;-79
2022/11/12 10:08:28;;;;;;;7.78;5.00;;;8.50;99.90;;;;;;10177967;29;20052;-81
2022/11/12 10:13:48;;;;;;;7.40;5.43;;;8.60;99.90;;;;;;10177961;29;20455;-75
2022/11/12 10:19:19;;;;;;;7.13;5.18;;;8.60;99.90;;;;;;10177200;29;20063;-74
2022/11/12 10:24:23;;;;;;;7.90;4.97;;;8.70;99.90;;;;;;10176423;29;20080;-80
2022/11/12 10:29:33;;;;;;;7.55;5.20;;;9.00;99.90;;;;;;10201773;29;20485;-76
2022/11/12 10:34:35;;;;;;;7.70;5.13;;;9.10;99.90;;;;;;10197904;29;20135;-79
2022/11/12 10:39:41;;;;;;;7.22;5.40;;;9.20;99.90;;;;;;10192697;29;20078;-77
2022/11/12 10:44:44;;;;;;;7.90;5.85;;;9.40;99.90;;;;;;10195872;29;20043;-80
2022/11/12 10:50:11;;;;;;;8.23;5.97;;;9.40;99.90;;;;;;10207001;29;20052;-78
2022/11/12 10:55:21;;;;;;;8.73;5.88;;;9.40;99.90;;;;;;10146535;29;20056;-78
2022/11/12 11:00:24;;;;;;;8.85;6.43;;;9.50;99.90;;;;;;10177141;29;20052;-74
2022/11/12 11:05:32;;;;;;;10.00;6.57;;;9.60;99.90;;;;;;10177781;29;20056;-75
2022/11/12 11:10:37;;;;;;;9.35;6.38;;;9.80;99.90;;;;;;10173492;29;20048;-73
2022/11/12 11:15:39;;;;;;;7.80;5.65;;;9.90;99.90;;;;;;10193592;29;20052;-75
2022/11/12 11:20:47;;;;;;;8.48;5.72;;;9.90;99.90;;;;;;10192111;29;20060;-75
2022/11/12 11:25:54;;;;;;;8.30;6.00;;;10.00;99.90;;;;;;10215158;29;20054;-74
2022/11/12 11:31:06;;;;;;;9.52;5.82;;;10.40;99.90;;;;;;10187767;29;20410;-80
2022/11/12 11:36:21;;;;;;;8.95;6.22;;;10.50;99.90;;;;;;10174446;29;20047;-78
2022/11/12 11:41:55;;;;;;;9.55;6.90;;;10.70;99.90;;;;;;10173749;29;20383;-81
2022/11/12 11:47:16;;;;;;;7.70;6.13;;;10.60;99.90;;;;;;10134547;29;20052;-75
2022/11/12 11:52:42;;;;;;;8.63;6.05;;;10.90;99.90;;;;;;10176392;29;20116;-76
2022/11/12 11:57:57;;;;;;;9.27;6.40;;;11.00;99.90;;;;;;10176254;29;20469;-78
2022/11/12 12:03:19;;;;;;;8.93;6.43;;;10.90;99.90;;;;;;10177293;29;20088;-77
2022/11/12 12:08:36;;;;;;;25.67;13.52;;;11.10;99.90;;;;;;10184334;29;20185;-79
2022/11/12 12:14:01;;;;;;;29.17;13.80;;;11.40;99.90;;;;;;10180164;29;20048;-80
2022/11/12 12:19:14;;;;;;;8.80;6.47;;;11.40;99.90;;;;;;10188212;29;20055;-78
2022/11/12 12:24:21;;;;;;;8.70;6.57;;;11.70;99.90;;;;;;10196945;29;20056;-78
2022/11/12 12:29:31;;;;;;;7.93;5.90;;;11.80;99.90;;;;;;10185314;29;20052;-79
2022/11/12 12:34:38;;;;;;;13.57;8.52;;;12.20;99.90;;;;;;10166250;29;20048;-80
2022/11/12 12:39:47;;;;;;;8.32;6.22;;;12.50;99.90;;;;;;10185687;29;20410;-76
2022/11/12 12:45:03;;;;;;;8.73;6.10;;;12.60;99.90;;;;;;10183490;29;20557;-79
2022/11/12 12:50:12;;;;;;;9.32;6.10;;;12.80;99.90;;;;;;10190813;29;20080;-73
2022/11/12 12:55:41;;;;;;;7.65;5.80;;;13.00;99.90;;;;;;10186823;29;20493;-77
2022/11/12 13:00:48;;;;;;;7.53;5.85;;;13.30;99.90;;;;;;10189129;29;20088;-78
2022/11/12 13:06:06;;;;;;;7.65;5.47;;;13.30;99.90;;;;;;10180151;29;20108;-77
2022/11/12 13:11:09;;;;;;;8.65;5.93;;;13.50;99.90;;;;;;10171004;29;20045;-79
2022/11/12 13:16:59;;;;;;;8.35;5.70;;;13.70;99.90;;;;;;10200806;29;20110;-79
2022/11/12 13:22:33;;;;;;;7.32;5.38;;;14.20;99.50;;;;;;10179194;29;20059;-77
2022/11/12 13:28:10;;;;;;;8.82;5.85;;;14.40;98.70;;;;;;10157770;29;20474;-81
2022/11/12 13:33:31;;;;;;;7.73;5.00;;;15.00;97.20;;;;;;10178562;29;20048;-78
2022/11/12 13:38:37;;;;;;;8.18;4.70;;;15.70;96.40;;;;;;10208698;29;20080;-78
2022/11/12 13:43:41;;;;;;;7.55;5.03;;;16.20;95.10;;;;;;10202750;29;20048;-79
2022/11/12 13:48:47;;;;;;;7.93;4.88;;;16.40;94.10;;;;;;10189420;29;20571;-79
2022/11/12 13:53:49;;;;;;;8.23;5.20;;;16.40;93.90;;;;;;10171506;29;20044;-79
2022/11/12 13:58:50;;;;;;;7.15;5.05;;;16.20;93.70;;;;;;10188125;29;20076;-77
2022/11/12 14:03:54;;;;;;;8.02;5.38;;;15.80;94.50;;;;;;10233905;29;20056;-79
2022/11/12 14:09:23;;;;;;;9.00;6.35;;;15.50;94.80;;;;;;10218995;29;20060;-77
2022/11/12 14:14:38;;;;;;;8.50;5.57;;;15.40;95.50;;;;;;10210350;29;20052;-76
2022/11/12 14:20:06;;;;;;;8.68;6.00;;;15.20;96.00;;;;;;10179184;29;20060;-82
2022/11/12 14:25:18;;;;;;;8.40;5.90;;;15.00;96.20;;;;;;10180932;29;20095;-81
2022/11/12 14:30:23;;;;;;;8.80;5.63;;;14.70;96.50;;;;;;10180782;29;20087;-82
2022/11/12 14:35:35;;;;;;;8.68;6.45;;;14.40;97.30;;;;;;10181166;29;20052;-83
2022/11/12 14:40:43;;;;;;;9.57;6.65;;;14.10;97.50;;;;;;10193172;29;20103;-83
2022/11/12 14:45:48;;;;;;;10.30;7.43;;;13.80;98.10;;;;;;10184428;29;20064;-86
2022/11/12 14:50:58;;;;;;;12.20;8.88;;;13.60;98.50;;;;;;10181298;29;20135;-85
2022/11/12 14:56:04;;;;;;;13.40;8.20;;;13.40;99.10;;;;;;10197707;29;20044;-85
2022/11/12 15:01:23;;;;;;;11.60;7.90;;;13.30;99.30;;;;;;10220153;29;20056;-84
2022/11/12 15:06:33;;;;;;;12.30;8.40;;;13.10;99.90;;;;;;10211881;29;20059;-84
2022/11/12 15:11:44;;;;;;;11.68;7.88;;;12.90;99.90;;;;;;10175937;29;20474;-84
2022/11/12 15:16:46;;;;;;;12.27;7.75;;;12.80;99.90;;;;;;10143005;29;20045;-83
2022/11/12 15:21:52;;;;;;;11.73;8.00;;;12.70;99.90;;;;;;10152177;29;20076;-82
2022/11/12 15:26:55;;;;;;;12.02;8.07;;;12.60;99.90;;;;;;10151385;29;20041;-85
2022/11/12 15:32:01;;;;;;;9.73;7.10;;;12.30;99.90;;;;;;10186026;29;20041;-84
2022/11/12 15:37:08;;;;;;;12.65;7.15;;;12.30;99.90;;;;;;10177882;29;20052;-83
2022/11/12 15:42:17;;;;;;;11.98;6.00;;;12.10;99.90;;;;;;10140245;29;20059;-84
2022/11/12 15:47:21;;;;;;;9.60;5.88;;;12.00;99.90;;;;;;10166142;29;20045;-83
2022/11/12 15:52:24;;;;;;;11.82;7.05;;;11.80;99.90;;;;;;10164381;29;20056;-82
2022/11/12 15:57:31;;;;;;;10.38;5.93;;;11.70;99.90;;;;;;10141975;29;20048;-84
2022/11/12 16:02:33;;;;;;;10.02;5.95;;;11.50;99.90;;;;;;10141397;29;20186;-82
2022/11/12 16:07:37;;;;;;;9.13;5.93;;;11.40;99.90;;;;;;10146154;29;20518;-85
2022/11/12 16:12:43;;;;;;;8.48;5.63;;;11.20;99.90;;;;;;10140428;29;20053;-85
2022/11/12 16:17:48;;;;;;;9.00;6.05;;;11.10;99.90;;;;;;10143329;29;20459;-86
2022/11/12 16:22:52;;;;;;;9.18;5.95;;;10.90;99.90;;;;;;10123509;29;20052;-84
2022/11/12 16:27:56;;;;;;;9.63;6.30;;;10.90;99.90;;;;;;10156302;29;20052;-84
2022/11/12 16:32:59;;;;;;;13.32;8.10;;;10.90;99.90;;;;;;10180545;29;20040;-76
2022/11/12 16:38:04;;;;;;;11.82;6.85;;;10.80;99.90;;;;;;10176200;29;20142;-78
2022/11/12 16:43:06;;;;;;;10.75;7.40;;;10.80;99.90;;;;;;10199273;29;20414;-80
2022/11/12 16:48:14;;;;;;;8.82;6.00;;;10.80;99.90;;;;;;10173442;29;20103;-78
2022/11/12 16:53:17;;;;;;;9.98;5.93;;;10.60;99.90;;;;;;10176721;29;20058;-79
2022/11/12 16:58:19;;;;;;;10.43;6.63;;;10.50;99.90;;;;;;10167129;29;20060;-80
2022/11/12 17:03:21;;;;;;;11.60;6.60;;;10.40;99.90;;;;;;10170191;29;20069;-78
2022/11/12 17:08:28;;;;;;;17.33;10.02;;;10.30;99.90;;;;;;10173327;29;20481;-79
2022/11/12 17:13:30;;;;;;;25.00;14.52;;;10.20;99.90;;;;;;10186123;29;20055;-78
2022/11/12 17:18:32;;;;;;;18.33;11.80;;;10.10;99.90;;;;;;10190183;29;20064;-79
2022/11/12 17:23:36;;;;;;;10.48;7.47;;;10.00;99.90;;;;;;10186569;29;20056;-76
2022/11/12 17:28:41;;;;;;;12.65;7.47;;;9.80;99.90;;;;;;10192229;29;20063;-79
2022/11/12 17:33:46;;;;;;;12.80;7.72;;;9.70;99.90;;;;;;10185101;29;20062;-79
2022/11/12 17:38:54;;;;;;;12.02;7.47;;;9.70;99.90;;;;;;10205221;29;20084;-79
2022/11/12 17:43:57;;;;;;;9.77;6.43;;;9.60;99.90;;;;;;10210965;29;20056;-77
2022/11/12 17:49:02;;;;;;;11.02;7.05;;;9.40;99.90;;;;;;10190012;29;20040;-79
2022/11/12 17:54:07;;;;;;;12.48;8.10;;;9.40;99.90;;;;;;10173211;29;20059;-82
2022/11/12 17:59:09;;;;;;;13.48;7.88;;;9.30;99.90;;;;;;10187751;29;20060;-80
2022/11/12 18:04:11;;;;;;;12.75;7.80;;;9.30;99.90;;;;;;10186526;29;20059;-81
2022/11/12 18:09:15;;;;;;;12.55;7.45;;;9.30;99.90;;;;;;10190946;29;20056;-74
2022/11/12 18:14:17;;;;;;;13.30;8.25;;;9.20;99.90;;;;;;10184976;29;20063;-76
2022/11/12 18:19:20;;;;;;;15.18;8.55;;;9.10;99.90;;;;;;10174059;29;20084;-76
2022/11/12 18:24:24;;;;;;;11.20;7.00;;;9.00;99.90;;;;;;10183629;29;20107;-77
2022/11/12 18:29:26;;;;;;;10.90;7.20;;;9.00;99.90;;;;;;10170356;29;20392;-80
2022/11/12 18:34:28;;;;;;;11.43;7.30;;;9.00;99.90;;;;;;10170987;29;20111;-76
2022/11/12 18:39:31;;;;;;;10.57;7.47;;;8.90;99.90;;;;;;10190988;29;20565;-78
2022/11/12 18:44:33;;;;;;;12.13;7.72;;;8.90;99.90;;;;;;10197327;29;20079;-79
2022/11/12 18:49:35;;;;;;;11.63;7.80;;;8.80;99.90;;;;;;10191696;29;20047;-77
2022/11/12 18:54:38;;;;;;;9.80;6.80;;;8.70;99.90;;;;;;10178182;29;20462;-80
2022/11/12 18:59:40;;;;;;;16.50;10.07;;;8.60;99.90;;;;;;10190055;29;20127;-78
2022/11/12 19:04:43;;;;;;;14.02;9.45;;;8.50;99.90;;;;;;10180249;29;20052;-77
2022/11/12 19:09:46;;;;;;;20.83;11.65;;;8.50;99.90;;;;;;10185521;29;20631;-81
2022/11/12 19:14:48;;;;;;;16.25;10.70;;;8.50;99.90;;;;;;10175458;29;20109;-80
2022/11/12 19:19:51;;;;;;;17.27;10.95;;;8.50;99.90;;;;;;10159430;29;20056;-79
2022/11/12 19:24:55;;;;;;;13.68;9.07;;;8.40;99.90;;;;;;10184560;29;20052;-80
2022/11/12 19:30:00;;;;;;;18.50;12.50;;;8.30;99.90;;;;;;10189791;29;20090;-81
2022/11/12 19:35:02;;;;;;;17.75;12.38;;;8.10;99.90;;;;;;10181484;29;20104;-78
2022/11/12 19:40:08;;;;;;;21.40;14.10;;;8.10;99.90;;;;;;10202160;29;20062;-80
2022/11/12 19:45:10;;;;;;;29.65;13.50;;;8.10;99.90;;;;;;10178054;29;20108;-78
2022/11/12 19:50:13;;;;;;;33.40;15.48;;;8.20;99.90;;;;;;10171913;29;20062;-79
2022/11/12 19:55:16;;;;;;;21.17;14.15;;;8.20;99.90;;;;;;10185086;29;20174;-77
2022/11/12 20:00:19;;;;;;;21.00;13.63;;;8.20;99.90;;;;;;10168979;29;20652;-79
2022/11/12 20:05:21;;;;;;;20.80;13.98;;;8.10;99.90;;;;;;10168757;29;20060;-77
2022/11/12 20:10:27;;;;;;;24.30;15.30;;;8.10;99.90;;;;;;10166163;29;20136;-81
2022/11/12 20:15:29;;;;;;;28.33;17.67;;;8.10;99.90;;;;;;10150777;29;20056;-79
2022/11/12 20:20:34;;;;;;;24.33;13.98;;;8.00;99.90;;;;;;10191537;29;20470;-79
2022/11/12 20:25:40;;;;;;;21.55;13.93;;;8.00;99.90;;;;;;10169688;29;20745;-79
2022/11/12 20:30:45;;;;;;;22.38;13.18;;;8.00;99.90;;;;;;10151407;29;20045;-79
2022/11/12 20:35:47;;;;;;;20.58;13.73;;;8.00;99.90;;;;;;10170345;29;20060;-77
2022/11/12 20:40:58;;;;;;;21.27;14.38;;;7.90;99.90;;;;;;10169099;29;20091;-75
2022/11/12 20:46:02;;;;;;;19.98;12.73;;;7.70;99.90;;;;;;10175237;29;20106;-78
2022/11/12 20:51:07;;;;;;;16.83;11.75;;;7.50;99.90;;;;;;10194982;29;20075;-74
2022/11/12 20:56:16;;;;;;;18.98;12.45;;;7.40;99.90;;;;;;10177627;29;20063;-77
2022/11/12 21:01:22;;;;;;;16.42;11.27;;;7.30;99.90;;;;;;10192428;29;20059;-76
2022/11/12 21:06:29;;;;;;;15.98;10.57;;;7.20;99.90;;;;;;10187428;29;20052;-74
2022/11/12 21:11:32;;;;;;;19.83;11.07;;;7.40;99.90;;;;;;10190273;29;20075;-75
2022/11/12 21:16:34;;;;;;;17.02;11.63;;;7.40;99.90;;;;;;10216845;29;20084;-78
2022/11/12 21:21:36;;;;;;;18.95;12.15;;;7.30;99.90;;;;;;10226347;29;20060;-77
2022/11/12 21:26:40;;;;;;;18.70;12.32;;;7.20;99.90;;;;;;10212732;29;20043;-76
2022/11/12 21:31:45;;;;;;;18.40;12.88;;;7.10;99.90;;;;;;10218077;29;20517;-76
2022/11/12 21:36:46;;;;;;;20.88;13.10;;;7.20;99.90;;;;;;10202715;29;20458;-78
2022/11/12 21:41:52;;;;;;;18.00;12.68;;;7.20;99.90;;;;;;10194138;29;20485;-75
2022/11/12 21:46:57;;;;;;;16.35;11.30;;;7.00;99.90;;;;;;10183094;29;20663;-75
2022/11/12 21:51:59;;;;;;;34.70;18.95;;;6.90;99.90;;;;;;10204408;29;20536;-78
2022/11/12 21:57:02;;;;;;;20.92;12.10;;;6.90;99.90;;;;;;10214337;29;20063;-78
2022/11/12 22:02:04;;;;;;;18.55;13.40;;;6.80;99.90;;;;;;10171598;29;20201;-78
2022/11/12 22:07:06;;;;;;;44.72;15.75;;;6.50;99.90;;;;;;10174780;29;20478;-78
2022/11/12 22:12:09;;;;;;;18.88;11.57;;;6.50;99.90;;;;;;10200965;29;20111;-79
2022/11/12 22:17:11;;;;;;;24.30;12.88;;;6.40;99.90;;;;;;10173517;29;20052;-79
2022/11/12 22:22:13;;;;;;;28.60;12.27;;;6.40;99.90;;;;;;10172542;29;20146;-77
2022/11/12 22:27:16;;;;;;;36.15;13.48;;;6.40;99.90;;;;;;10179926;29;20088;-79
2022/11/12 22:32:18;;;;;;;44.88;15.07;;;6.20;99.90;;;;;;10183626;29;20104;-76
2022/11/12 22:37:20;;;;;;;19.17;13.88;;;6.10;99.90;;;;;;10211975;29;20478;-77
2022/11/12 22:42:23;;;;;;;20.75;13.15;;;6.10;99.90;;;;;;10180149;29;20468;-76
2022/11/12 22:47:25;;;;;;;24.33;12.52;;;6.00;99.90;;;;;;10178051;29;20039;-77
2022/11/12 22:52:27;;;;;;;17.50;12.88;;;6.10;99.90;;;;;;10179154;29;20112;-77
2022/11/12 22:57:31;;;;;;;17.70;12.82;;;6.10;99.90;;;;;;10181691;29;20055;-78
